sensor_id;sensor_type;location;lat;lon;timestamp;P1;durP1;ratioP1;P2;durP2;ratioP2
25153;SDS011;47555;51.038;6.280;2022-11-15T00:00:17;23.52;;;11.88;;
25153;SDS011;47555;51.038;6.280;2022-11-15T00:02:42;19.55;;;10.10;;
25153;SDS011;47555;51.038;6.280;2022-11-15T00:05:08;22.40;;;11.20;;
25153;SDS011;47555;51.038;6.280;2022-11-15T00:07:33;17.83;;;9.50;;
25153;SDS011;47555;51.038;6.280;2022-11-15T00:09:59;21.63;;;10.52;;
25153;SDS011;47555;51.038;6.280;2022-11-15T00:12:24;18.98;;;10.80;;
25153;SDS011;47555;51.038;6.280;2022-11-15T00:14:52;17.55;;;9.40;;
25153;SDS011;47555;51.038;6.280;2022-11-15T00:17:18;17.92;;;10.23;;
25153;SDS011;47555;51.038;6.280;2022-11-15T00:19:43;18.48;;;9.45;;
25153;SDS011;47555;51.038;6.280;2022-11-15T00:22:09;18.50;;;8.93;;
25153;SDS011;47555;51.038;6.280;2022-11-15T00:24:34;16.13;;;9.80;;
25153;SDS011;47555;51.038;6.280;2022-11-15T00:27:00;16.50;;;10.07;;
25153;SDS011;47555;51.038;6.280;2022-11-15T00:29:25;22.30;;;11.70;;
25153;SDS011;47555;51.038;6.280;2022-11-15T00:31:51;24.52;;;12.93;;
25153;SDS011;47555;51.038;6.280;2022-11-15T00:34:17;21.38;;;12.70;;
25153;SDS011;47555;51.038;6.280;2022-11-15T00:36:42;19.60;;;11.57;;
25153;SDS011;47555;51.038;6.280;2022-11-15T00:39:08;19.25;;;11.15;;
25153;SDS011;47555;51.038;6.280;2022-11-15T00:41:33;18.30;;;10.70;;
25153;SDS011;47555;51.038;6.280;2022-11-15T00:43:59;18.48;;;10.98;;
25153;SDS011;47555;51.038;6.280;2022-11-15T00:46:24;19.38;;;11.13;;
25153;SDS011;47555;51.038;6.280;2022-11-15T00:48:50;18.60;;;11.15;;
25153;SDS011;47555;51.038;6.280;2022-11-15T00:51:15;16.52;;;10.23;;
25153;SDS011;47555;51.038;6.280;2022-11-15T00:53:41;16.13;;;9.60;;
25153;SDS011;47555;51.038;6.280;2022-11-15T00:56:06;16.00;;;9.60;;
25153;SDS011;47555;51.038;6.280;2022-11-15T00:58:32;14.35;;;8.95;;
25153;SDS011;47555;51.038;6.280;2022-11-15T01:01:08;14.98;;;8.63;;
25153;SDS011;47555;51.038;6.280;2022-11-15T01:03:36;14.88;;;9.18;;
25153;SDS011;47555;51.038;6.280;2022-11-15T01:06:02;18.73;;;8.70;;
25153;SDS011;47555;51.038;6.280;2022-11-15T01:08:28;14.48;;;8.60;;
25153;SDS011;47555;51.038;6.280;2022-11-15T01:10:53;15.27;;;9.20;;
25153;SDS011;47555;51.038;6.280;2022-11-15T01:13:19;14.18;;;8.77;;
25153;SDS011;47555;51.038;6.280;2022-11-15T01:15:44;14.70;;;8.43;;
25153;SDS011;47555;51.038;6.280;2022-11-15T01:18:10;16.58;;;8.93;;
25153;SDS011;47555;51.038;6.280;2022-11-15T01:20:41;18.67;;;9.73;;
25153;SDS011;47555;51.038;6.280;2022-11-15T01:25:33;13.85;;;9.15;;
25153;SDS011;47555;51.038;6.280;2022-11-15T01:27:59;16.80;;;9.00;;
25153;SDS011;47555;51.038;6.280;2022-11-15T01:30:24;17.05;;;9.13;;
25153;SDS011;47555;51.038;6.280;2022-11-15T01:32:50;15.10;;;9.60;;
25153;SDS011;47555;51.038;6.280;2022-11-15T01:35:15;14.50;;;8.38;;
25153;SDS011;47555;51.038;6.280;2022-11-15T01:37:41;15.27;;;9.40;;
25153;SDS011;47555;51.038;6.280;2022-11-15T01:40:07;17.63;;;9.50;;
25153;SDS011;47555;51.038;6.280;2022-11-15T01:42:33;16.17;;;9.18;;
25153;SDS011;47555;51.038;6.280;2022-11-15T01:44:58;17.55;;;9.10;;
25153;SDS011;47555;51.038;6.280;2022-11-15T01:47:25;12.75;;;8.60;;
25153;SDS011;47555;51.038;6.280;2022-11-15T01:49:58;14.20;;;8.55;;
25153;SDS011;47555;51.038;6.280;2022-11-15T01:52:27;13.77;;;8.60;;
25153;SDS011;47555;51.038;6.280;2022-11-15T01:55:11;12.82;;;8.38;;
25153;SDS011;47555;51.038;6.280;2022-11-15T01:57:41;13.50;;;7.88;;
25153;SDS011;47555;51.038;6.280;2022-11-15T02:00:10;12.70;;;8.15;;
25153;SDS011;47555;51.038;6.280;2022-11-15T02:02:36;12.80;;;7.97;;
25153;SDS011;47555;51.038;6.280;2022-11-15T02:05:02;13.48;;;8.13;;
25153;SDS011;47555;51.038;6.280;2022-11-15T02:07:28;12.70;;;8.18;;
25153;SDS011;47555;51.038;6.280;2022-11-15T02:09:55;17.50;;;8.25;;
25153;SDS011;47555;51.038;6.280;2022-11-15T02:12:24;12.05;;;7.40;;
25153;SDS011;47555;51.038;6.280;2022-11-15T02:14:51;13.90;;;7.57;;
25153;SDS011;47555;51.038;6.280;2022-11-15T02:17:43;11.52;;;8.23;;
25153;SDS011;47555;51.038;6.280;2022-11-15T02:20:29;12.68;;;7.40;;
25153;SDS011;47555;51.038;6.280;2022-11-15T02:26:24;13.45;;;7.72;;
25153;SDS011;47555;51.038;6.280;2022-11-15T02:29:05;12.68;;;7.45;;
25153;SDS011;47555;51.038;6.280;2022-11-15T02:40:07;13.25;;;7.07;;
25153;SDS011;47555;51.038;6.280;2022-11-15T02:43:09;12.27;;;7.13;;
25153;SDS011;47555;51.038;6.280;2022-11-15T02:48:47;12.68;;;7.50;;
25153;SDS011;47555;51.038;6.280;2022-11-15T02:51:13;13.45;;;7.22;;
25153;SDS011;47555;51.038;6.280;2022-11-15T02:53:40;10.52;;;6.53;;
25153;SDS011;47555;51.038;6.280;2022-11-15T02:56:07;11.93;;;6.45;;
25153;SDS011;47555;51.038;6.280;2022-11-15T02:58:48;10.80;;;6.60;;
25153;SDS011;47555;51.038;6.280;2022-11-15T03:01:57;10.10;;;7.10;;
25153;SDS011;47555;51.038;6.280;2022-11-15T03:07:37;12.52;;;7.22;;
25153;SDS011;47555;51.038;6.280;2022-11-15T03:15:52;16.15;;;8.50;;
25153;SDS011;47555;51.038;6.280;2022-11-15T03:18:28;11.40;;;7.45;;
25153;SDS011;47555;51.038;6.280;2022-11-15T03:20:58;11.30;;;7.30;;
25153;SDS011;47555;51.038;6.280;2022-11-15T03:23:26;11.50;;;6.72;;
25153;SDS011;47555;51.038;6.280;2022-11-15T03:25:53;11.98;;;7.57;;
25153;SDS011;47555;51.038;6.280;2022-11-15T03:28:25;11.23;;;6.53;;
25153;SDS011;47555;51.038;6.280;2022-11-15T03:31:16;10.80;;;6.13;;
25153;SDS011;47555;51.038;6.280;2022-11-15T03:34:03;10.52;;;6.00;;
25153;SDS011;47555;51.038;6.280;2022-11-15T03:36:31;9.55;;;6.28;;
25153;SDS011;47555;51.038;6.280;2022-11-15T03:39:00;9.95;;;5.55;;
25153;SDS011;47555;51.038;6.280;2022-11-15T03:41:39;8.32;;;5.57;;
25153;SDS011;47555;51.038;6.280;2022-11-15T03:44:14;10.40;;;6.07;;
25153;SDS011;47555;51.038;6.280;2022-11-15T03:46:47;9.77;;;6.15;;
25153;SDS011;47555;51.038;6.280;2022-11-15T03:49:18;8.68;;;5.97;;
25153;SDS011;47555;51.038;6.280;2022-11-15T03:51:49;9.35;;;6.03;;
25153;SDS011;47555;51.038;6.280;2022-11-15T03:54:15;8.50;;;5.50;;
25153;SDS011;47555;51.038;6.280;2022-11-15T03:56:40;8.98;;;6.15;;
25153;SDS011;47555;51.038;6.280;2022-11-15T03:59:06;10.00;;;5.90;;
25153;SDS011;47555;51.038;6.280;2022-11-15T04:01:31;9.02;;;6.50;;
25153;SDS011;47555;51.038;6.280;2022-11-15T04:03:57;10.68;;;6.15;;
25153;SDS011;47555;51.038;6.280;2022-11-15T04:06:22;8.82;;;5.57;;
25153;SDS011;47555;51.038;6.280;2022-11-15T04:08:48;9.23;;;5.68;;
25153;SDS011;47555;51.038;6.280;2022-11-15T04:11:13;9.43;;;5.68;;
25153;SDS011;47555;51.038;6.280;2022-11-15T04:13:39;7.78;;;5.32;;
25153;SDS011;47555;51.038;6.280;2022-11-15T04:16:04;10.25;;;5.65;;
25153;SDS011;47555;51.038;6.280;2022-11-15T04:18:30;10.38;;;5.82;;
25153;SDS011;47555;51.038;6.280;2022-11-15T04:20:55;11.02;;;5.82;;
25153;SDS011;47555;51.038;6.280;2022-11-15T04:23:39;10.07;;;5.80;;
25153;SDS011;47555;51.038;6.280;2022-11-15T04:26:23;10.73;;;5.88;;
25153;SDS011;47555;51.038;6.280;2022-11-15T04:28:49;10.15;;;5.57;;
25153;SDS011;47555;51.038;6.280;2022-11-15T04:31:33;10.38;;;5.68;;
25153;SDS011;47555;51.038;6.280;2022-11-15T04:33:59;8.45;;;5.38;;
25153;SDS011;47555;51.038;6.280;2022-11-15T04:36:26;7.72;;;5.20;;
25153;SDS011;47555;51.038;6.280;2022-11-15T04:39:10;9.30;;;5.28;;
25153;SDS011;47555;51.038;6.280;2022-11-15T04:41:35;9.45;;;5.88;;
25153;SDS011;47555;51.038;6.280;2022-11-15T04:44:01;8.13;;;4.82;;
25153;SDS011;47555;51.038;6.280;2022-11-15T04:46:26;9.55;;;5.75;;
25153;SDS011;47555;51.038;6.280;2022-11-15T04:48:52;7.65;;;5.38;;
25153;SDS011;47555;51.038;6.280;2022-11-15T04:51:19;8.57;;;6.22;;
25153;SDS011;47555;51.038;6.280;2022-11-15T04:53:44;10.18;;;6.28;;
25153;SDS011;47555;51.038;6.280;2022-11-15T04:56:10;10.52;;;6.10;;
25153;SDS011;47555;51.038;6.280;2022-11-15T04:58:36;8.55;;;6.00;;
25153;SDS011;47555;51.038;6.280;2022-11-15T05:01:12;7.22;;;5.03;;
25153;SDS011;47555;51.038;6.280;2022-11-15T05:03:39;7.88;;;4.95;;
25153;SDS011;47555;51.038;6.280;2022-11-15T05:06:24;9.35;;;5.95;;
25153;SDS011;47555;51.038;6.280;2022-11-15T05:08:49;10.25;;;5.47;;
25153;SDS011;47555;51.038;6.280;2022-11-15T05:11:15;6.72;;;4.93;;
25153;SDS011;47555;51.038;6.280;2022-11-15T05:13:40;7.93;;;5.00;;
25153;SDS011;47555;51.038;6.280;2022-11-15T05:16:06;5.93;;;5.07;;
25153;SDS011;47555;51.038;6.280;2022-11-15T05:18:31;7.65;;;5.45;;
25153;SDS011;47555;51.038;6.280;2022-11-15T05:21:03;8.18;;;5.32;;
25153;SDS011;47555;51.038;6.280;2022-11-15T05:23:32;6.72;;;4.45;;
25153;SDS011;47555;51.038;6.280;2022-11-15T05:26:01;7.25;;;4.25;;
25153;SDS011;47555;51.038;6.280;2022-11-15T05:28:28;5.93;;;4.15;;
25153;SDS011;47555;51.038;6.280;2022-11-15T05:30:53;3.83;;;3.22;;
25153;SDS011;47555;51.038;6.280;2022-11-15T05:33:39;4.72;;;3.50;;
25153;SDS011;47555;51.038;6.280;2022-11-15T05:36:13;5.65;;;3.53;;
25153;SDS011;47555;51.038;6.280;2022-11-15T05:38:54;4.20;;;3.80;;
25153;SDS011;47555;51.038;6.280;2022-11-15T05:41:20;3.67;;;3.38;;
25153;SDS011;47555;51.038;6.280;2022-11-15T05:46:17;6.50;;;3.30;;
25153;SDS011;47555;51.038;6.280;2022-11-15T05:48:44;5.50;;;3.20;;
25153;SDS011;47555;51.038;6.280;2022-11-15T05:51:12;4.50;;;2.90;;
25153;SDS011;47555;51.038;6.280;2022-11-15T05:53:39;4.60;;;3.55;;
25153;SDS011;47555;51.038;6.280;2022-11-15T05:56:05;7.00;;;3.17;;
25153;SDS011;47555;51.038;6.280;2022-11-15T05:58:32;3.30;;;2.90;;
25153;SDS011;47555;51.038;6.280;2022-11-15T06:00:58;4.30;;;3.35;;
25153;SDS011;47555;51.038;6.280;2022-11-15T06:03:25;4.80;;;2.80;;
25153;SDS011;47555;51.038;6.280;2022-11-15T06:05:50;3.75;;;2.63;;
25153;SDS011;47555;51.038;6.280;2022-11-15T06:08:16;4.55;;;2.22;;
25153;SDS011;47555;51.038;6.280;2022-11-15T06:10:41;2.47;;;1.92;;
25153;SDS011;47555;51.038;6.280;2022-11-15T06:13:07;2.30;;;1.90;;
25153;SDS011;47555;51.038;6.280;2022-11-15T06:15:32;2.40;;;1.67;;
25153;SDS011;47555;51.038;6.280;2022-11-15T06:18:01;2.40;;;1.83;;
25153;SDS011;47555;51.038;6.280;2022-11-15T06:20:27;2.60;;;1.65;;
25153;SDS011;47555;51.038;6.280;2022-11-15T06:22:57;2.20;;;1.65;;
25153;SDS011;47555;51.038;6.280;2022-11-15T06:25:24;1.42;;;1.30;;
25153;SDS011;47555;51.038;6.280;2022-11-15T06:27:51;2.75;;;1.40;;
25153;SDS011;47555;51.038;6.280;2022-11-15T06:30:20;1.23;;;1.13;;
25153;SDS011;47555;51.038;6.280;2022-11-15T06:32:47;2.03;;;1.13;;
25153;SDS011;47555;51.038;6.280;2022-11-15T06:35:13;0.90;;;0.90;;
25153;SDS011;47555;51.038;6.280;2022-11-15T06:37:39;0.98;;;0.98;;
25153;SDS011;47555;51.038;6.280;2022-11-15T06:40:06;1.30;;;1.00;;
25153;SDS011;47555;51.038;6.280;2022-11-15T06:42:32;1.08;;;0.90;;
25153;SDS011;47555;51.038;6.280;2022-11-15T06:44:58;1.45;;;0.82;;
25153;SDS011;47555;51.038;6.280;2022-11-15T06:47:23;1.27;;;1.17;;
25153;SDS011;47555;51.038;6.280;2022-11-15T06:49:49;1.77;;;0.93;;
25153;SDS011;47555;51.038;6.280;2022-11-15T06:52:14;1.08;;;0.98;;
25153;SDS011;47555;51.038;6.280;2022-11-15T06:54:43;1.85;;;1.00;;
25153;SDS011;47555;51.038;6.280;2022-11-15T06:57:09;0.75;;;0.75;;
25153;SDS011;47555;51.038;6.280;2022-11-15T06:59:35;1.35;;;1.02;;
25153;SDS011;47555;51.038;6.280;2022-11-15T07:02:01;1.17;;;1.08;;
25153;SDS011;47555;51.038;6.280;2022-11-15T07:04:27;1.73;;;1.10;;
25153;SDS011;47555;51.038;6.280;2022-11-15T07:09:43;1.33;;;0.90;;
25153;SDS011;47555;51.038;6.280;2022-11-15T07:12:09;1.20;;;1.10;;
25153;SDS011;47555;51.038;6.280;2022-11-15T07:14:34;1.40;;;1.30;;
25153;SDS011;47555;51.038;6.280;2022-11-15T07:17:00;2.25;;;1.25;;
25153;SDS011;47555;51.038;6.280;2022-11-15T07:19:28;1.38;;;1.25;;
25153;SDS011;47555;51.038;6.280;2022-11-15T07:21:54;1.65;;;1.20;;
25153;SDS011;47555;51.038;6.280;2022-11-15T07:24:19;1.73;;;1.35;;
25153;SDS011;47555;51.038;6.280;2022-11-15T07:26:45;1.48;;;1.10;;
25153;SDS011;47555;51.038;6.280;2022-11-15T07:29:10;1.30;;;1.20;;
25153;SDS011;47555;51.038;6.280;2022-11-15T07:31:36;2.50;;;1.35;;
25153;SDS011;47555;51.038;6.280;2022-11-15T07:34:01;1.48;;;1.35;;
25153;SDS011;47555;51.038;6.280;2022-11-15T07:36:27;1.23;;;1.10;;
25153;SDS011;47555;51.038;6.280;2022-11-15T07:38:52;1.13;;;1.02;;
25153;SDS011;47555;51.038;6.280;2022-11-15T07:41:18;2.35;;;1.30;;
25153;SDS011;47555;51.038;6.280;2022-11-15T07:43:43;1.30;;;1.10;;
25153;SDS011;47555;51.038;6.280;2022-11-15T07:46:09;2.00;;;1.23;;
25153;SDS011;47555;51.038;6.280;2022-11-15T07:48:35;2.47;;;1.63;;
25153;SDS011;47555;51.038;6.280;2022-11-15T07:51:02;2.15;;;1.52;;
25153;SDS011;47555;51.038;6.280;2022-11-15T07:53:27;2.20;;;1.70;;
25153;SDS011;47555;51.038;6.280;2022-11-15T07:55:53;1.75;;;1.42;;
25153;SDS011;47555;51.038;6.280;2022-11-15T07:58:21;2.97;;;1.70;;
25153;SDS011;47555;51.038;6.280;2022-11-15T08:00:47;3.60;;;1.60;;
25153;SDS011;47555;51.038;6.280;2022-11-15T08:03:13;1.90;;;1.70;;
25153;SDS011;47555;51.038;6.280;2022-11-15T08:05:40;2.10;;;1.50;;
25153;SDS011;47555;51.038;6.280;2022-11-15T08:08:07;2.75;;;1.40;;
25153;SDS011;47555;51.038;6.280;2022-11-15T08:10:35;3.47;;;1.35;;
25153;SDS011;47555;51.038;6.280;2022-11-15T08:13:03;3.90;;;1.52;;
25153;SDS011;47555;51.038;6.280;2022-11-15T08:15:30;2.60;;;1.90;;
25153;SDS011;47555;51.038;6.280;2022-11-15T08:17:57;2.67;;;2.10;;
25153;SDS011;47555;51.038;6.280;2022-11-15T08:20:25;1.98;;;1.70;;
25153;SDS011;47555;51.038;6.280;2022-11-15T08:22:54;2.38;;;1.70;;
25153;SDS011;47555;51.038;6.280;2022-11-15T08:25:20;2.35;;;1.58;;
25153;SDS011;47555;51.038;6.280;2022-11-15T08:27:46;2.83;;;1.40;;
25153;SDS011;47555;51.038;6.280;2022-11-15T08:30:12;1.50;;;1.30;;
25153;SDS011;47555;51.038;6.280;2022-11-15T08:32:38;1.10;;;1.00;;
25153;SDS011;47555;51.038;6.280;2022-11-15T08:35:04;3.97;;;1.40;;
25153;SDS011;47555;51.038;6.280;2022-11-15T08:37:30;3.22;;;1.30;;
25153;SDS011;47555;51.038;6.280;2022-11-15T08:39:56;1.67;;;0.90;;
25153;SDS011;47555;51.038;6.280;2022-11-15T08:42:21;3.25;;;1.00;;
25153;SDS011;47555;51.038;6.280;2022-11-15T08:44:47;2.10;;;1.35;;
25153;SDS011;47555;51.038;6.280;2022-11-15T08:47:12;3.05;;;1.40;;
25153;SDS011;47555;51.038;6.280;2022-11-15T08:49:38;3.35;;;1.10;;
25153;SDS011;47555;51.038;6.280;2022-11-15T08:52:04;3.17;;;1.38;;
25153;SDS011;47555;51.038;6.280;2022-11-15T08:54:29;2.92;;;1.15;;
25153;SDS011;47555;51.038;6.280;2022-11-15T08:56:55;1.58;;;1.08;;
25153;SDS011;47555;51.038;6.280;2022-11-15T08:59:20;2.95;;;1.10;;
25153;SDS011;47555;51.038;6.280;2022-11-15T09:01:47;1.80;;;1.23;;
25153;SDS011;47555;51.038;6.280;2022-11-15T09:04:12;1.75;;;1.10;;
25153;SDS011;47555;51.038;6.280;2022-11-15T09:06:38;1.92;;;1.05;;
25153;SDS011;47555;51.038;6.280;2022-11-15T09:09:03;1.98;;;1.00;;
25153;SDS011;47555;51.038;6.280;2022-11-15T09:11:29;3.22;;;1.40;;
25153;SDS011;47555;51.038;6.280;2022-11-15T09:13:54;3.10;;;1.30;;
25153;SDS011;47555;51.038;6.280;2022-11-15T09:16:20;2.38;;;1.35;;
25153;SDS011;47555;51.038;6.280;2022-11-15T09:18:45;1.50;;;1.27;;
25153;SDS011;47555;51.038;6.280;2022-11-15T09:21:11;1.48;;;1.10;;
25153;SDS011;47555;51.038;6.280;2022-11-15T09:23:37;2.40;;;1.13;;
25153;SDS011;47555;51.038;6.280;2022-11-15T09:26:03;3.45;;;1.75;;
25153;SDS011;47555;51.038;6.280;2022-11-15T09:28:30;4.70;;;1.75;;
25153;SDS011;47555;51.038;6.280;2022-11-15T09:30:57;4.53;;;1.40;;
25153;SDS011;47555;51.038;6.280;2022-11-15T09:33:24;4.88;;;1.17;;
25153;SDS011;47555;51.038;6.280;2022-11-15T09:35:49;1.48;;;1.17;;
25153;SDS011;47555;51.038;6.280;2022-11-15T09:38:15;4.97;;;1.40;;
25153;SDS011;47555;51.038;6.280;2022-11-15T09:40:40;6.30;;;1.90;;
25153;SDS011;47555;51.038;6.280;2022-11-15T09:45:58;3.88;;;1.35;;
25153;SDS011;47555;51.038;6.280;2022-11-15T09:51:19;3.40;;;1.55;;
25153;SDS011;47555;51.038;6.280;2022-11-15T09:54:09;1.98;;;1.10;;
25153;SDS011;47555;51.038;6.280;2022-11-15T09:56:43;4.82;;;1.20;;
25153;SDS011;47555;51.038;6.280;2022-11-15T09:59:22;3.53;;;1.30;;
25153;SDS011;47555;51.038;6.280;2022-11-15T10:05:08;2.53;;;1.50;;
25153;SDS011;47555;51.038;6.280;2022-11-15T10:07:40;2.83;;;1.10;;
25153;SDS011;47555;51.038;6.280;2022-11-15T10:10:44;1.60;;;1.00;;
25153;SDS011;47555;51.038;6.280;2022-11-15T10:13:13;2.73;;;1.23;;
25153;SDS011;47555;51.038;6.280;2022-11-15T10:15:51;3.42;;;1.08;;
25153;SDS011;47555;51.038;6.280;2022-11-15T10:18:24;0.95;;;0.90;;
25153;SDS011;47555;51.038;6.280;2022-11-15T10:21:15;3.85;;;1.10;;
25153;SDS011;47555;51.038;6.280;2022-11-15T10:26:14;3.08;;;1.88;;
25153;SDS011;47555;51.038;6.280;2022-11-15T10:28:41;1.70;;;0.95;;
25153;SDS011;47555;51.038;6.280;2022-11-15T10:31:21;2.00;;;1.17;;
25153;SDS011;47555;51.038;6.280;2022-11-15T10:33:48;1.80;;;1.27;;
25153;SDS011;47555;51.038;6.280;2022-11-15T10:36:15;1.27;;;0.80;;
25153;SDS011;47555;51.038;6.280;2022-11-15T10:46:32;1.70;;;1.00;;
25153;SDS011;47555;51.038;6.280;2022-11-15T10:49:13;2.65;;;1.00;;
25153;SDS011;47555;51.038;6.280;2022-11-15T10:51:51;2.33;;;0.93;;
25153;SDS011;47555;51.038;6.280;2022-11-15T10:54:36;3.75;;;0.98;;
25153;SDS011;47555;51.038;6.280;2022-11-15T10:57:14;1.05;;;0.73;;
25153;SDS011;47555;51.038;6.280;2022-11-15T10:59:44;1.02;;;0.70;;
25153;SDS011;47555;51.038;6.280;2022-11-15T11:05:29;2.92;;;0.60;;
25153;SDS011;47555;51.038;6.280;2022-11-15T11:08:02;0.98;;;0.60;;
25153;SDS011;47555;51.038;6.280;2022-11-15T11:10:28;3.30;;;0.75;;
25153;SDS011;47555;51.038;6.280;2022-11-15T11:12:54;1.75;;;0.70;;
25153;SDS011;47555;51.038;6.280;2022-11-15T11:15:20;3.72;;;1.00;;
25153;SDS011;47555;51.038;6.280;2022-11-15T11:17:53;2.40;;;0.73;;
25153;SDS011;47555;51.038;6.280;2022-11-15T11:20:38;2.38;;;0.75;;
25153;SDS011;47555;51.038;6.280;2022-11-15T11:23:15;2.08;;;0.73;;
25153;SDS011;47555;51.038;6.280;2022-11-15T11:33:52;4.38;;;0.80;;
25153;SDS011;47555;51.038;6.280;2022-11-15T11:38:56;5.68;;;1.02;;
25153;SDS011;47555;51.038;6.280;2022-11-15T11:49:17;2.00;;;0.70;;
25153;SDS011;47555;51.038;6.280;2022-11-15T11:54:28;1.02;;;0.60;;
25153;SDS011;47555;51.038;6.280;2022-11-15T11:57:03;1.77;;;0.82;;
25153;SDS011;47555;51.038;6.280;2022-11-15T11:59:43;2.40;;;0.90;;
25153;SDS011;47555;51.038;6.280;2022-11-15T12:02:25;0.98;;;0.73;;
25153;SDS011;47555;51.038;6.280;2022-11-15T12:04:58;2.65;;;0.70;;
25153;SDS011;47555;51.038;6.280;2022-11-15T12:07:33;1.98;;;0.85;;
25153;SDS011;47555;51.038;6.280;2022-11-15T12:15:49;1.20;;;0.80;;
25153;SDS011;47555;51.038;6.280;2022-11-15T12:18:23;2.72;;;0.80;;
25153;SDS011;47555;51.038;6.280;2022-11-15T12:20:54;2.15;;;0.90;;
25153;SDS011;47555;51.038;6.280;2022-11-15T12:23:26;1.10;;;0.80;;
25153;SDS011;47555;51.038;6.280;2022-11-15T12:25:58;2.58;;;0.80;;
25153;SDS011;47555;51.038;6.280;2022-11-15T12:31:17;2.63;;;1.20;;
25153;SDS011;47555;51.038;6.280;2022-11-15T12:33:55;2.85;;;1.00;;
25153;SDS011;47555;51.038;6.280;2022-11-15T12:38:55;3.03;;;0.90;;
25153;SDS011;47555;51.038;6.280;2022-11-15T12:41:26;1.50;;;0.90;;
25153;SDS011;47555;51.038;6.280;2022-11-15T12:43:52;1.95;;;0.93;;
25153;SDS011;47555;51.038;6.280;2022-11-15T12:48:49;4.45;;;0.80;;
25153;SDS011;47555;51.038;6.280;2022-11-15T12:51:19;1.75;;;1.13;;
25153;SDS011;47555;51.038;6.280;2022-11-15T12:53:46;3.63;;;1.25;;
25153;SDS011;47555;51.038;6.280;2022-11-15T12:58:53;4.57;;;1.55;;
25153;SDS011;47555;51.038;6.280;2022-11-15T13:06:46;3.70;;;2.42;;
25153;SDS011;47555;51.038;6.280;2022-11-15T13:12:00;1.23;;;0.70;;
25153;SDS011;47555;51.038;6.280;2022-11-15T13:14:37;3.95;;;1.20;;
25153;SDS011;47555;51.038;6.280;2022-11-15T13:20:01;1.75;;;0.80;;
25153;SDS011;47555;51.038;6.280;2022-11-15T13:30:51;3.90;;;1.30;;
25153;SDS011;47555;51.038;6.280;2022-11-15T13:33:23;2.90;;;1.08;;
25153;SDS011;47555;51.038;6.280;2022-11-15T13:36:01;6.60;;;1.20;;
25153;SDS011;47555;51.038;6.280;2022-11-15T13:38:31;2.95;;;1.55;;
25153;SDS011;47555;51.038;6.280;2022-11-15T13:40:58;5.75;;;1.75;;
25153;SDS011;47555;51.038;6.280;2022-11-15T13:43:35;4.03;;;1.30;;
25153;SDS011;47555;51.038;6.280;2022-11-15T13:48:38;4.30;;;1.30;;
25153;SDS011;47555;51.038;6.280;2022-11-15T13:51:10;2.80;;;1.30;;
25153;SDS011;47555;51.038;6.280;2022-11-15T13:53:43;1.65;;;1.20;;
25153;SDS011;47555;51.038;6.280;2022-11-15T13:56:13;1.75;;;1.20;;
25153;SDS011;47555;51.038;6.280;2022-11-15T13:58:41;2.15;;;1.15;;
25153;SDS011;47555;51.038;6.280;2022-11-15T14:01:08;2.72;;;1.13;;
25153;SDS011;47555;51.038;6.280;2022-11-15T14:03:46;1.92;;;1.10;;
25153;SDS011;47555;51.038;6.280;2022-11-15T14:06:16;2.92;;;1.33;;
25153;SDS011;47555;51.038;6.280;2022-11-15T14:11:34;1.17;;;1.08;;
25153;SDS011;47555;51.038;6.280;2022-11-15T14:16:43;2.40;;;1.10;;
25153;SDS011;47555;51.038;6.280;2022-11-15T14:19:12;3.38;;;1.30;;
25153;SDS011;47555;51.038;6.280;2022-11-15T14:22:15;4.88;;;1.55;;
25153;SDS011;47555;51.038;6.280;2022-11-15T14:30:39;4.13;;;1.40;;
25153;SDS011;47555;51.038;6.280;2022-11-15T14:33:20;4.22;;;1.98;;
25153;SDS011;47555;51.038;6.280;2022-11-15T14:35:48;5.47;;;1.67;;
25153;SDS011;47555;51.038;6.280;2022-11-15T14:38:14;3.88;;;1.63;;
25153;SDS011;47555;51.038;6.280;2022-11-15T14:40:41;3.40;;;2.13;;
25153;SDS011;47555;51.038;6.280;2022-11-15T14:43:08;2.05;;;1.83;;
25153;SDS011;47555;51.038;6.280;2022-11-15T14:45:35;3.00;;;1.75;;
25153;SDS011;47555;51.038;6.280;2022-11-15T14:48:01;2.60;;;2.00;;
25153;SDS011;47555;51.038;6.280;2022-11-15T14:50:26;2.10;;;1.40;;
25153;SDS011;47555;51.038;6.280;2022-11-15T14:52:52;4.80;;;1.90;;
25153;SDS011;47555;51.038;6.280;2022-11-15T14:55:22;1.98;;;1.67;;
25153;SDS011;47555;51.038;6.280;2022-11-15T14:57:50;2.08;;;1.58;;
25153;SDS011;47555;51.038;6.280;2022-11-15T15:00:17;2.80;;;1.50;;
25153;SDS011;47555;51.038;6.280;2022-11-15T15:02:44;1.70;;;1.60;;
25153;SDS011;47555;51.038;6.280;2022-11-15T15:07:46;2.05;;;1.83;;
25153;SDS011;47555;51.038;6.280;2022-11-15T15:10:12;1.70;;;1.50;;
25153;SDS011;47555;51.038;6.280;2022-11-15T15:12:39;4.85;;;2.17;;
25153;SDS011;47555;51.038;6.280;2022-11-15T15:15:05;3.13;;;2.00;;
25153;SDS011;47555;51.038;6.280;2022-11-15T15:17:31;1.80;;;1.58;;
25153;SDS011;47555;51.038;6.280;2022-11-15T15:19:56;2.50;;;2.05;;
25153;SDS011;47555;51.038;6.280;2022-11-15T15:22:22;2.90;;;2.00;;
25153;SDS011;47555;51.038;6.280;2022-11-15T15:24:50;3.65;;;2.00;;
25153;SDS011;47555;51.038;6.280;2022-11-15T15:27:16;3.15;;;2.10;;
25153;SDS011;47555;51.038;6.280;2022-11-15T15:29:41;3.00;;;1.95;;
25153;SDS011;47555;51.038;6.280;2022-11-15T15:32:08;4.60;;;2.65;;
25153;SDS011;47555;51.038;6.280;2022-11-15T15:34:34;2.60;;;2.40;;
25153;SDS011;47555;51.038;6.280;2022-11-15T15:37:32;3.30;;;2.03;;
25153;SDS011;47555;51.038;6.280;2022-11-15T15:39:51;4.30;;;2.03;;
25153;SDS011;47555;51.038;6.280;2022-11-15T15:42:21;3.05;;;1.95;;
25153;SDS011;47555;51.038;6.280;2022-11-15T15:44:48;2.67;;;1.95;;
25153;SDS011;47555;51.038;6.280;2022-11-15T15:49:46;3.38;;;2.08;;
25153;SDS011;47555;51.038;6.280;2022-11-15T15:52:13;2.90;;;2.10;;
25153;SDS011;47555;51.038;6.280;2022-11-15T15:54:39;4.07;;;3.05;;
25153;SDS011;47555;51.038;6.280;2022-11-15T15:57:06;3.78;;;2.35;;
25153;SDS011;47555;51.038;6.280;2022-11-15T15:59:32;5.00;;;2.35;;
25153;SDS011;47555;51.038;6.280;2022-11-15T16:01:58;4.40;;;2.25;;
25153;SDS011;47555;51.038;6.280;2022-11-15T16:04:23;2.03;;;1.70;;
25153;SDS011;47555;51.038;6.280;2022-11-15T16:06:49;2.60;;;1.90;;
25153;SDS011;47555;51.038;6.280;2022-11-15T16:09:17;2.15;;;1.75;;
25153;SDS011;47555;51.038;6.280;2022-11-15T16:12:04;2.67;;;1.80;;
25153;SDS011;47555;51.038;6.280;2022-11-15T16:14:30;3.25;;;1.90;;
25153;SDS011;47555;51.038;6.280;2022-11-15T16:16:56;2.45;;;1.60;;
25153;SDS011;47555;51.038;6.280;2022-11-15T16:19:22;3.92;;;1.73;;
25153;SDS011;47555;51.038;6.280;2022-11-15T16:21:47;2.65;;;1.80;;
25153;SDS011;47555;51.038;6.280;2022-11-15T16:24:13;2.33;;;1.98;;
25153;SDS011;47555;51.038;6.280;2022-11-15T16:26:38;1.80;;;1.45;;
25153;SDS011;47555;51.038;6.280;2022-11-15T16:29:04;2.20;;;1.83;;
25153;SDS011;47555;51.038;6.280;2022-11-15T16:31:31;2.42;;;1.73;;
25153;SDS011;47555;51.038;6.280;2022-11-15T16:33:57;2.40;;;2.17;;
25153;SDS011;47555;51.038;6.280;2022-11-15T16:36:23;4.75;;;2.47;;
25153;SDS011;47555;51.038;6.280;2022-11-15T16:38:50;3.15;;;1.90;;
25153;SDS011;47555;51.038;6.280;2022-11-15T16:41:16;3.00;;;2.00;;
25153;SDS011;47555;51.038;6.280;2022-11-15T16:43:46;4.22;;;2.75;;
25153;SDS011;47555;51.038;6.280;2022-11-15T16:48:40;3.20;;;2.30;;
25153;SDS011;47555;51.038;6.280;2022-11-15T16:51:05;3.85;;;2.30;;
25153;SDS011;47555;51.038;6.280;2022-11-15T16:53:31;5.43;;;2.65;;
25153;SDS011;47555;51.038;6.280;2022-11-15T16:55:56;4.60;;;2.83;;
25153;SDS011;47555;51.038;6.280;2022-11-15T16:58:22;5.18;;;2.75;;
25153;SDS011;47555;51.038;6.280;2022-11-15T17:00:52;6.85;;;3.28;;
25153;SDS011;47555;51.038;6.280;2022-11-15T17:03:19;5.82;;;3.03;;
25153;SDS011;47555;51.038;6.280;2022-11-15T17:05:46;4.43;;;2.78;;